North Java, NY (14113)

2:29 PM EDT on September 20, 2014 (GMT -0400)
W2TGR | Change Station
CLOSE
Current Station
Personal Weather Station
Location: Bliss, NY
Elevation: 1975 ft
Nearby Weather Stations

Elev 1975 ft 42.58 °N, 78.28 °W | Updated 0 second ago

Mostly Cloudy
Mostly Cloudy
71.2 °F
Feels Like 76 °F
N
13.6
Wind Variable Wind from SE
Gusts 15.9 mph

Today
High -- | Low -- °F
--% Chance of Precip.
Yesterday
High -- | Low -- °F
Precip. -- in
6:58 AM 7:14 PM
Waning Crescent, 11% visible
Pressure 29.93 in
Visibility 10.0 miles
Clouds Scattered Clouds 3500 ft
Scattered Clouds 17000 ft
Mostly Cloudy 21000 ft
Mostly Cloudy 25000 ft
Heat Index 76 °F
Dew Point 56 °F
Humidity 58%
Rainfall 0.00 in
Snow Depth Not available.
UV 4 out of 12
Pollen 4.70 out of 12
Ozone Good
PM2.5 Moderate
Flu Activity Not available.
METAR KBUF 201754Z 23017G27KT 10SM SCT035 SCT170 BKN210 BKN250 24/14 A2993 RMK AO2 PK WND 23029/1736 SLP134 T02390144 10239 20178 58031

More Conditions Fewer Conditions

Pressure 29.93 in
Visibility 10.0 miles
Clouds Scattered Clouds 3500 ft
Scattered Clouds 17000 ft
Mostly Cloudy 21000 ft
Mostly Cloudy 25000 ft
Heat Index 76 °F
Dew Point 56 °F
Humidity 58%
Rainfall 0.00 in
Snow Depth Not available.
UV 4 out of 12
Pollen 4.70 out of 12
Ozone Good
PM2.5 Moderate
Flu Activity Not available.
METAR KBUF 201754Z 23017G27KT 10SM SCT035 SCT170 BKN210 BKN250 24/14 A2993 RMK AO2 PK WND 23029/1736 SLP134 T02390144 10239 20178 58031

More Conditions Fewer Conditions

10-Day Weather Forecast

Almanac

Astronomy

Sep. 20, 2014 Rise Set
Actual Time 6:58 AM EDT 7:14 PM EDT
Civil Twilight 6:30 AM EDT 7:42 PM EDT
Nautical Twilight 5:57 AM EDT 8:15 PM EDT
Astronomical Twilight 5:23 AM EDT 8:49 PM EDT
Moon 3:32 AM EDT 5:19 PM EDT
Length of Visible Light 13h 12m
Length of Day
12h 15m
Tomorrow will be 2m 53s shorter.
Waning Crescent, 11% of the Moon is Illuminated
Today
Waning Crescent
Sep 24
New
Oct 1
First Quarter
Oct 8
Full
Oct 15
Last Quarter

Today's Extremes

State Highs State Lows

Community

WunderPhotos

Upload Photos

1,754,921 photos uploaded!

Nearby

Air Quality

  Air Quality AQ Index Pollutant
Yesterday Good
OZONE
Yesterday Good
PM2.5
Current Moderate
PM2.5
Current Good
OZONE
Saturday Good
OZONE
Saturday Good
PM2.5
Sunday Good
PM2.5
Sunday Good
OZONE
Monday Good
PM2.5
Monday Good
OZONE

Snow Depth

Station Depth Elevation
No new snow has been reported.

Earthquake Activity

City Distance Mag. Time & Date
No recent earthquake activity has been reported nearby.
Minimum magnitude displayed is 2.5.

Coastal Water Temperatures

Place Temperature
Buffalo, NY 66.9 °F

Nearby Weather Stations